Time;durP1;ratioP1;P1;durP2;ratioP2;P2;SDS_P1;SDS_P2;PMS_P1;PMS_P2;Temp;Humidity;BMP_temperature;BMP_pressure;BME280_temperature;BME280_humidity;BME280_pressure;Samples;Min_cycle;Max_cycle;Signal;HPM_P1;HPM_P2
2023/10/30 00:01:23;;;;;;;9.00;4.15;;;22.10;53.00;;;;;;5130687;27;45519;-72
2023/10/30 00:03:51;;;;;;;12.07;3.92;;;22.10;53.00;;;;;;5129652;27;46728;-74
2023/10/30 00:06:18;;;;;;;11.35;3.80;;;22.10;53.00;;;;;;5129526;27;45387;-75
2023/10/30 00:08:45;;;;;;;9.02;4.03;;;22.00;53.10;;;;;;5128935;27;45363;-75
2023/10/30 00:11:12;;;;;;;7.10;3.78;;;22.10;53.20;;;;;;5129855;27;45177;-75
2023/10/30 00:13:38;;;;;;;10.02;3.67;;;22.00;53.20;;;;;;5129701;27;45600;-75
2023/10/30 00:16:06;;;;;;;7.47;3.25;;;22.00;53.20;;;;;;5129547;27;45293;-75
2023/10/30 00:18:34;;;;;;;8.20;3.63;;;22.00;53.30;;;;;;5121448;27;45386;-75
2023/10/30 00:21:01;;;;;;;10.52;4.40;;;22.00;53.30;;;;;;5130155;27;45541;-74
2023/10/30 00:23:28;;;;;;;12.80;3.50;;;22.00;53.40;;;;;;5129315;27;45479;-75
2023/10/30 00:25:56;;;;;;;7.65;3.83;;;21.90;53.30;;;;;;5128587;27;45327;-75
2023/10/30 00:28:23;;;;;;;7.03;3.30;;;21.90;53.40;;;;;;5129569;27;45177;-75
2023/10/30 00:30:50;;;;;;;7.35;2.97;;;21.90;53.40;;;;;;5129741;27;45180;-75
2023/10/30 00:33:17;;;;;;;10.68;3.90;;;21.90;53.40;;;;;;5129023;27;45269;-75
2023/10/30 00:35:46;;;;;;;9.82;3.75;;;21.80;53.40;;;;;;5132788;27;45288;-76
2023/10/30 00:38:12;;;;;;;8.07;3.08;;;21.80;53.40;;;;;;5150183;27;45393;-75
2023/10/30 00:40:39;;;;;;;7.90;3.40;;;21.80;53.40;;;;;;5150425;27;45386;-75
2023/10/30 00:43:06;;;;;;;8.57;3.88;;;21.80;53.40;;;;;;5150009;27;45243;-75
2023/10/30 00:45:33;;;;;;;6.55;2.97;;;21.80;53.40;;;;;;5149863;27;45968;-75
2023/10/30 00:48:00;;;;;;;10.57;2.97;;;21.80;53.50;;;;;;5149950;27;45330;-75
2023/10/30 00:50:26;;;;;;;8.13;2.90;;;21.70;53.40;;;;;;5150290;27;45365;-75
2023/10/30 00:52:55;;;;;;;6.43;3.15;;;21.70;53.40;;;;;;5149877;27;47317;-75
2023/10/30 00:55:21;;;;;;;7.15;3.10;;;21.70;53.50;;;;;;5149958;27;45180;-75
2023/10/30 00:57:48;;;;;;;4.32;2.67;;;21.70;53.50;;;;;;5150027;27;45500;-75
2023/10/30 01:00:16;;;;;;;5.75;2.80;;;21.70;53.50;;;;;;5147259;27;45347;-74
2023/10/30 01:02:44;;;;;;;6.13;2.60;;;21.60;53.50;;;;;;5149711;27;45394;-75
2023/10/30 01:05:11;;;;;;;4.85;2.60;;;21.60;53.50;;;;;;5149773;27;45205;-75
2023/10/30 01:07:38;;;;;;;3.42;2.28;;;21.60;53.60;;;;;;5149773;27;45207;-74
2023/10/30 01:10:07;;;;;;;7.35;2.78;;;21.60;53.60;;;;;;5148275;27;45282;-75
2023/10/30 01:12:33;;;;;;;5.40;2.80;;;21.60;53.60;;;;;;5128524;27;45248;-75
2023/10/30 01:15:00;;;;;;;6.10;3.10;;;21.60;53.60;;;;;;5128866;27;45204;-75
2023/10/30 01:17:27;;;;;;;5.68;2.33;;;21.50;53.60;;;;;;5128891;27;45232;-75
2023/10/30 01:19:54;;;;;;;4.55;2.50;;;21.50;53.60;;;;;;5128910;27;45446;-75
2023/10/30 01:22:21;;;;;;;5.75;2.58;;;21.50;53.60;;;;;;5128491;27;45291;-75
2023/10/30 01:24:47;;;;;;;7.03;2.60;;;21.50;53.70;;;;;;5128694;27;45334;-75
2023/10/30 01:27:16;;;;;;;5.88;2.70;;;21.50;53.70;;;;;;5128455;27;45185;-75
2023/10/30 01:29:43;;;;;;;6.18;2.60;;;21.50;53.70;;;;;;5129025;27;45207;-75
2023/10/30 01:32:09;;;;;;;5.72;2.33;;;21.50;53.70;;;;;;5128365;27;45425;-74
2023/10/30 01:34:36;;;;;;;8.27;2.25;;;21.40;53.60;;;;;;5128182;27;45298;-75
2023/10/30 01:37:03;;;;;;;5.78;2.78;;;21.40;53.70;;;;;;5143989;27;45359;-75
2023/10/30 01:39:30;;;;;;;3.20;1.98;;;21.40;53.70;;;;;;5149483;27;45294;-75
2023/10/30 01:41:57;;;;;;;3.78;2.10;;;21.40;53.70;;;;;;5148987;27;46284;-75
2023/10/30 01:44:25;;;;;;;7.40;2.60;;;21.40;53.80;;;;;;5148966;27;45419;-75
2023/10/30 01:46:53;;;;;;;4.43;1.85;;;21.30;53.80;;;;;;5148721;27;45321;-75
2023/10/30 01:49:19;;;;;;;6.15;1.80;;;21.40;53.80;;;;;;5139186;27;45235;-75
2023/10/30 01:51:46;;;;;;;4.85;1.90;;;21.30;53.90;;;;;;5127925;27;45210;-75
2023/10/30 01:54:13;;;;;;;4.20;2.22;;;21.30;53.80;;;;;;5127237;27;45251;-75
2023/10/30 01:56:40;;;;;;;3.10;1.73;;;21.30;53.90;;;;;;5128103;27;45373;-75
2023/10/30 01:59:07;;;;;;;4.43;1.98;;;21.30;53.90;;;;;;5128508;27;45383;-75
2023/10/30 02:01:35;;;;;;;4.88;2.13;;;21.30;53.90;;;;;;5128137;27;45483;-76
2023/10/30 02:04:02;;;;;;;3.90;1.98;;;21.30;54.00;;;;;;5128394;27;45354;-76
2023/10/30 02:06:29;;;;;;;4.45;1.90;;;21.30;54.00;;;;;;5128079;27;45296;-75
2023/10/30 02:08:57;;;;;;;3.83;1.63;;;21.20;53.90;;;;;;5128430;27;45340;-75
2023/10/30 02:11:23;;;;;;;4.22;1.90;;;21.20;54.00;;;;;;5127688;27;45873;-75
2023/10/30 02:13:56;;;;;;;3.33;1.63;;;21.20;54.00;;;;;;5127887;27;45191;-75
2023/10/30 02:16:23;;;;;;;3.67;1.63;;;21.20;54.00;;;;;;5128019;27;45282;-75
2023/10/30 02:18:51;;;;;;;3.40;1.95;;;21.20;54.00;;;;;;5128125;27;45640;-75
2023/10/30 02:21:18;;;;;;;3.70;1.80;;;21.20;54.00;;;;;;5127751;27;45257;-75
2023/10/30 02:23:45;;;;;;;3.95;1.77;;;21.10;54.00;;;;;;5127924;27;45281;-75
2023/10/30 02:26:13;;;;;;;4.00;1.60;;;21.10;54.10;;;;;;5125341;27;45351;-75
2023/10/30 02:28:40;;;;;;;2.45;1.42;;;21.10;54.10;;;;;;5127931;27;45196;-75
2023/10/30 02:31:07;;;;;;;4.07;1.50;;;21.10;54.10;;;;;;5127697;27;46690;-75
2023/10/30 02:33:34;;;;;;;3.88;1.88;;;21.10;54.20;;;;;;5127249;27;45270;-75
2023/10/30 02:36:01;;;;;;;4.25;1.55;;;21.10;54.20;;;;;;5134311;27;45274;-76
2023/10/30 02:38:27;;;;;;;4.57;1.52;;;21.00;54.20;;;;;;5147891;27;45473;-75
2023/10/30 02:40:54;;;;;;;3.88;1.60;;;21.00;54.20;;;;;;5148278;27;45313;-75
2023/10/30 02:43:22;;;;;;;4.32;1.50;;;21.00;54.20;;;;;;5148655;27;45199;-76
2023/10/30 02:45:50;;;;;;;2.35;1.52;;;21.00;54.20;;;;;;5148671;27;45280;-75
2023/10/30 02:48:18;;;;;;;2.92;1.23;;;21.00;54.30;;;;;;5147446;27;45252;-75
2023/10/30 02:50:45;;;;;;;2.53;1.42;;;21.00;54.30;;;;;;5127313;27;48339;-76
2023/10/30 02:53:11;;;;;;;2.47;1.40;;;20.90;54.30;;;;;;5127578;27;45198;-76
2023/10/30 02:55:38;;;;;;;4.72;1.98;;;20.90;54.40;;;;;;5127533;27;45204;-75
2023/10/30 02:58:05;;;;;;;4.40;1.48;;;20.90;54.40;;;;;;5127682;27;45282;-76
2023/10/30 03:00:33;;;;;;;2.75;1.15;;;20.90;54.40;;;;;;5130782;27;46376;-75
2023/10/30 03:03:00;;;;;;;2.78;1.88;;;20.80;54.40;;;;;;5130968;27;45239;-75
2023/10/30 03:05:27;;;;;;;2.10;1.08;;;20.90;54.40;;;;;;5130988;27;45176;-75
2023/10/30 03:07:53;;;;;;;2.60;1.60;;;20.80;54.40;;;;;;5131342;27;45272;-76
2023/10/30 03:10:21;;;;;;;2.60;1.33;;;20.80;54.40;;;;;;5130580;27;46405;-75
2023/10/30 03:12:48;;;;;;;2.33;1.35;;;20.80;54.50;;;;;;5130633;27;45260;-75
2023/10/30 03:15:15;;;;;;;2.17;1.30;;;20.80;54.50;;;;;;5130973;27;45254;-75
2023/10/30 03:17:44;;;;;;;4.03;1.50;;;20.80;54.50;;;;;;5131147;27;45268;-75
2023/10/30 03:20:11;;;;;;;1.50;1.20;;;20.80;54.50;;;;;;5130429;27;45363;-76
2023/10/30 03:22:38;;;;;;;1.35;1.25;;;20.80;54.50;;;;;;5129789;27;45431;-76
2023/10/30 03:25:06;;;;;;;2.33;1.15;;;20.70;54.50;;;;;;5130188;27;45281;-76
2023/10/30 03:27:33;;;;;;;1.65;1.08;;;20.70;54.60;;;;;;5130815;27;45179;-76
2023/10/30 03:30:00;;;;;;;1.20;1.10;;;20.70;54.60;;;;;;5130368;27;46362;-76
2023/10/30 03:32:26;;;;;;;1.23;1.13;;;20.70;54.60;;;;;;5130437;27;45383;-76
2023/10/30 03:34:55;;;;;;;1.50;1.10;;;20.70;54.60;;;;;;5130200;27;45426;-76
2023/10/30 03:37:22;;;;;;;2.80;1.50;;;20.70;54.60;;;;;;5148601;27;45609;-75
2023/10/30 03:39:49;;;;;;;2.65;1.40;;;20.60;55.20;;;;;;5151027;27;45236;-76
2023/10/30 03:42:15;;;;;;;1.95;1.23;;;20.60;54.60;;;;;;5151056;27;45318;-76
2023/10/30 03:44:42;;;;;;;2.83;1.40;;;20.60;54.60;;;;;;5151347;27;45440;-75
2023/10/30 03:47:09;;;;;;;1.38;1.10;;;20.60;54.60;;;;;;5151254;27;45327;-75
2023/10/30 03:49:36;;;;;;;1.27;0.80;;;20.60;54.60;;;;;;5150763;27;45427;-76
2023/10/30 03:52:05;;;;;;;3.05;0.90;;;20.60;54.70;;;;;;5150961;27;45209;-76
2023/10/30 03:54:31;;;;;;;1.67;1.10;;;20.60;54.60;;;;;;5150930;27;45274;-76
2023/10/30 03:56:58;;;;;;;1.00;0.90;;;20.60;54.60;;;;;;5151324;27;45390;-76
2023/10/30 03:59:26;;;;;;;2.83;1.10;;;20.60;54.70;;;;;;5150990;27;45477;-76
2023/10/30 04:01:53;;;;;;;1.85;1.00;;;20.60;54.70;;;;;;5150873;27;45193;-75
2023/10/30 04:04:19;;;;;;;1.33;1.13;;;20.60;54.70;;;;;;5150990;27;45259;-76
2023/10/30 04:06:46;;;;;;;2.33;1.10;;;20.60;54.80;;;;;;5150450;27;45474;-75
2023/10/30 04:09:14;;;;;;;2.88;1.10;;;20.60;54.80;;;;;;5150534;27;45792;-77
2023/10/30 04:11:41;;;;;;;1.23;1.10;;;20.60;54.60;;;;;;5149788;27;45166;-76
2023/10/30 04:14:08;;;;;;;2.83;1.20;;;20.70;54.60;;;;;;5150121;27;45199;-76
2023/10/30 04:16:35;;;;;;;1.52;1.00;;;20.70;54.40;;;;;;5150930;27;45407;-76
2023/10/30 04:19:02;;;;;;;2.25;1.13;;;20.80;54.20;;;;;;5150589;27;45518;-76
2023/10/30 04:21:28;;;;;;;2.13;1.02;;;20.90;54.00;;;;;;5150692;27;45297;-76
2023/10/30 04:23:55;;;;;;;0.98;0.80;;;20.90;53.80;;;;;;5150692;27;45167;-76
2023/10/30 04:26:23;;;;;;;2.60;0.98;;;21.00;53.70;;;;;;5133987;27;45114;-75
2023/10/30 04:28:50;;;;;;;1.27;0.90;;;21.10;53.60;;;;;;5129430;27;45434;-75
2023/10/30 04:31:17;;;;;;;2.45;1.02;;;21.20;53.40;;;;;;5129497;27;45483;-75
2023/10/30 04:33:44;;;;;;;1.30;0.80;;;21.30;53.30;;;;;;5129296;27;45276;-76
2023/10/30 04:36:12;;;;;;;1.42;1.10;;;21.30;53.10;;;;;;5137663;27;45185;-75
2023/10/30 04:38:39;;;;;;;1.77;0.80;;;21.40;53.00;;;;;;5150031;27;45757;-75
2023/10/30 04:41:06;;;;;;;1.48;1.10;;;21.40;52.90;;;;;;5150137;27;45267;-75
2023/10/30 04:43:34;;;;;;;1.45;1.05;;;21.40;52.80;;;;;;5150258;27;45326;-75
2023/10/30 04:46:02;;;;;;;1.25;1.00;;;21.50;52.70;;;;;;5150437;27;45312;-76
2023/10/30 04:48:30;;;;;;;1.40;1.00;;;21.50;52.60;;;;;;5149837;27;46398;-74
2023/10/30 04:50:56;;;;;;;1.77;1.20;;;21.50;52.60;;;;;;5149398;27;45386;-75
2023/10/30 04:53:23;;;;;;;1.65;1.00;;;21.50;52.60;;;;;;5149856;27;45255;-76
2023/10/30 04:55:50;;;;;;;1.25;1.00;;;21.60;52.60;;;;;;5150509;27;45286;-75
2023/10/30 04:58:17;;;;;;;1.30;0.88;;;21.60;52.50;;;;;;5150723;27;45241;-75
2023/10/30 05:00:46;;;;;;;1.25;0.80;;;21.60;52.30;;;;;;5150093;27;45303;-76
2023/10/30 05:03:13;;;;;;;1.38;1.00;;;21.70;52.30;;;;;;5130959;27;45318;-76
2023/10/30 05:05:40;;;;;;;1.27;0.82;;;21.70;52.20;;;;;;5129186;27;45408;-76
2023/10/30 05:08:07;;;;;;;1.92;1.10;;;21.70;52.10;;;;;;5128608;27;46655;-76
2023/10/30 05:10:33;;;;;;;1.52;0.90;;;21.70;52.10;;;;;;5128752;27;45228;-75
2023/10/30 05:12:59;;;;;;;1.20;0.95;;;21.70;52.00;;;;;;5128847;27;45223;-76
2023/10/30 05:15:26;;;;;;;2.25;1.00;;;21.80;52.00;;;;;;5129194;27;45324;-75
2023/10/30 05:17:54;;;;;;;1.25;0.90;;;21.80;52.00;;;;;;5128766;27;46394;-75
2023/10/30 05:20:21;;;;;;;0.80;0.80;;;21.80;52.60;;;;;;5128889;27;45181;-76
2023/10/30 05:22:48;;;;;;;1.20;0.70;;;21.70;52.00;;;;;;5129692;27;45276;-76
2023/10/30 05:25:15;;;;;;;1.33;0.70;;;21.70;51.90;;;;;;5128929;27;45152;-76
2023/10/30 05:27:42;;;;;;;1.90;1.00;;;21.70;51.90;;;;;;5128480;27;46349;-75
2023/10/30 05:30:10;;;;;;;0.82;0.82;;;21.70;51.90;;;;;;5128532;27;45333;-75
2023/10/30 05:32:36;;;;;;;0.75;0.75;;;21.70;52.00;;;;;;5128402;27;45259;-75
2023/10/30 05:35:05;;;;;;;1.20;0.82;;;21.70;52.00;;;;;;5128221;27;45123;-76
2023/10/30 05:37:32;;;;;;;1.00;0.68;;;21.70;52.00;;;;;;5148078;27;45412;-75
2023/10/30 05:40:00;;;;;;;1.08;1.00;;;21.70;52.00;;;;;;5149203;27;45334;-76
2023/10/30 05:42:26;;;;;;;1.35;1.25;;;21.70;52.00;;;;;;5149370;27;45356;-75
2023/10/30 05:44:54;;;;;;;1.20;0.80;;;21.70;52.00;;;;;;5149518;27;45212;-75
2023/10/30 05:47:21;;;;;;;0.88;0.88;;;21.70;51.80;;;;;;5149057;27;45505;-75
2023/10/30 05:49:48;;;;;;;2.03;0.90;;;21.70;51.80;;;;;;5149040;27;45342;-75
2023/10/30 05:52:16;;;;;;;1.10;0.68;;;21.70;51.80;;;;;;5149290;27;44708;-76
2023/10/30 05:54:43;;;;;;;1.30;0.90;;;21.70;51.80;;;;;;5149365;27;45165;-75
2023/10/30 05:57:10;;;;;;;2.00;1.00;;;21.70;51.80;;;;;;5149190;27;45244;-75
2023/10/30 05:59:37;;;;;;;0.90;0.80;;;21.70;51.80;;;;;;5148944;27;45187;-75
2023/10/30 06:02:05;;;;;;;0.70;0.60;;;21.70;51.80;;;;;;5140101;27;45331;-75
2023/10/30 06:04:34;;;;;;;0.68;0.65;;;21.70;51.80;;;;;;5128267;27;45406;-76
2023/10/30 06:07:01;;;;;;;0.77;0.77;;;21.70;51.80;;;;;;5128151;27;46426;-75
2023/10/30 06:09:30;;;;;;;0.80;0.68;;;21.70;51.90;;;;;;5127862;27;45438;-75
2023/10/30 06:11:56;;;;;;;0.70;0.70;;;21.60;51.80;;;;;;5127900;27;45291;-75
2023/10/30 06:14:23;;;;;;;0.63;0.63;;;21.60;52.40;;;;;;5128587;27;45501;-75
2023/10/30 06:16:50;;;;;;;1.38;1.02;;;21.70;51.80;;;;;;5127743;27;46148;-75
2023/10/30 06:19:17;;;;;;;0.80;0.80;;;21.70;51.80;;;;;;5127181;27;45274;-75
2023/10/30 06:21:44;;;;;;;1.17;0.60;;;21.70;51.70;;;;;;5127600;27;45306;-76
2023/10/30 06:24:11;;;;;;;1.23;0.77;;;21.70;51.70;;;;;;5128218;27;45311;-76
2023/10/30 06:26:41;;;;;;;0.95;0.82;;;21.70;51.70;;;;;;5127780;27;46717;-76
2023/10/30 06:29:07;;;;;;;1.17;0.80;;;21.70;51.70;;;;;;5127418;27;45458;-76
2023/10/30 06:31:35;;;;;;;0.80;0.73;;;21.60;51.60;;;;;;5127921;27;45304;-76
2023/10/30 06:34:02;;;;;;;0.88;0.80;;;21.60;51.60;;;;;;5129134;27;45423;-75
2023/10/30 06:36:29;;;;;;;1.08;0.75;;;21.60;52.20;;;;;;5141764;27;46332;-76
2023/10/30 06:38:56;;;;;;;1.15;0.65;;;21.60;51.70;;;;;;5144792;27;45213;-76
2023/10/30 06:41:24;;;;;;;0.70;0.70;;;21.60;51.70;;;;;;5131475;27;45362;-75
2023/10/30 06:43:52;;;;;;;0.70;0.65;;;21.60;51.80;;;;;;5131657;27;45316;-75
2023/10/30 06:46:19;;;;;;;0.60;0.60;;;21.60;51.80;;;;;;5131224;27;46324;-75
2023/10/30 06:48:45;;;;;;;1.65;0.70;;;21.60;51.80;;;;;;5131080;27;45192;-76
2023/10/30 06:51:12;;;;;;;0.82;0.80;;;21.60;51.70;;;;;;5131355;27;45184;-75
2023/10/30 06:53:39;;;;;;;0.75;0.75;;;21.60;51.70;;;;;;5131377;27;45298;-76
2023/10/30 06:56:06;;;;;;;1.65;0.80;;;21.60;51.60;;;;;;5127133;27;45291;-72
2023/10/30 06:58:33;;;;;;;2.17;1.17;;;21.60;51.60;;;;;;5121322;27;45426;-74
2023/10/30 07:01:05;;;;;;;2.10;1.30;;;21.60;51.80;;;;;;5128516;27;45244;-73
2023/10/30 07:03:33;;;;;;;5.57;1.20;;;21.60;52.40;;;;;;5131498;27;45403;-75
2023/10/30 07:06:00;;;;;;;3.17;1.48;;;21.50;51.80;;;;;;5129873;27;46199;-74
2023/10/30 07:08:27;;;;;;;3.88;1.70;;;21.50;52.00;;;;;;5130796;27;45188;-74
2023/10/30 07:10:55;;;;;;;3.75;1.55;;;21.50;52.10;;;;;;5131049;27;45306;-74
2023/10/30 07:13:22;;;;;;;2.65;1.50;;;21.50;52.10;;;;;;5127174;27;45417;-74
2023/10/30 07:15:49;;;;;;;1.63;1.40;;;21.50;52.00;;;;;;5119325;27;45404;-72
2023/10/30 07:18:17;;;;;;;2.45;1.33;;;21.60;52.10;;;;;;5121456;27;45267;-72
2023/10/30 07:20:44;;;;;;;2.22;1.27;;;21.60;52.10;;;;;;5122722;27;45347;-72
2023/10/30 07:23:11;;;;;;;4.65;1.60;;;21.60;52.00;;;;;;5119171;27;45311;-71
2023/10/30 07:25:38;;;;;;;3.80;1.77;;;21.70;52.00;;;;;;5130358;27;46370;-71
2023/10/30 07:28:05;;;;;;;8.65;1.52;;;21.70;52.00;;;;;;5130738;27;45657;-71
2023/10/30 07:30:32;;;;;;;2.72;1.40;;;21.70;52.00;;;;;;5130728;27;45275;-72
2023/10/30 07:32:59;;;;;;;3.78;1.73;;;21.70;51.90;;;;;;5129799;27;45364;-72
2023/10/30 07:35:27;;;;;;;2.08;1.50;;;21.70;52.00;;;;;;5113376;27;45465;-72
2023/10/30 07:37:54;;;;;;;4.65;1.40;;;21.70;52.10;;;;;;5130156;27;45232;-73
2023/10/30 07:40:25;;;;;;;3.60;1.40;;;21.80;52.10;;;;;;5130125;27;45172;-72
2023/10/30 07:42:52;;;;;;;7.13;1.30;;;21.80;52.10;;;;;;5130196;27;45414;-73
2023/10/30 07:45:19;;;;;;;2.78;1.40;;;21.80;52.10;;;;;;5129022;27;46789;-72
2023/10/30 07:47:45;;;;;;;6.20;1.70;;;21.90;52.10;;;;;;5112981;27;45257;-72
2023/10/30 07:50:12;;;;;;;8.32;1.60;;;21.90;52.10;;;;;;5121481;27;45253;-74
2023/10/30 07:52:40;;;;;;;3.95;1.63;;;21.90;52.10;;;;;;5131662;27;45414;-69
2023/10/30 07:55:08;;;;;;;4.32;1.30;;;21.90;51.70;;;;;;5130045;27;46297;-70
2023/10/30 07:57:35;;;;;;;3.97;1.30;;;21.90;52.00;;;;;;5129511;27;45196;-70
2023/10/30 08:00:03;;;;;;;5.13;1.88;;;21.90;52.40;;;;;;5128692;27;45256;-69
2023/10/30 08:02:30;;;;;;;1.80;1.30;;;21.80;52.10;;;;;;5124490;27;45466;-70
2023/10/30 08:04:59;;;;;;;2.88;1.30;;;21.80;52.20;;;;;;5125429;27;46695;-70
2023/10/30 08:07:26;;;;;;;4.35;1.45;;;21.80;52.20;;;;;;5123810;27;45405;-68
2023/10/30 08:09:55;;;;;;;4.00;1.48;;;21.80;52.20;;;;;;5129642;27;45276;-69
2023/10/30 08:12:21;;;;;;;3.40;1.40;;;21.80;52.20;;;;;;5129885;27;45714;-69
2023/10/30 08:14:48;;;;;;;3.22;1.58;;;21.80;52.20;;;;;;5129013;27;45383;-70
2023/10/30 08:17:15;;;;;;;3.03;1.38;;;21.80;52.30;;;;;;5116827;27;45533;-69
2023/10/30 08:19:42;;;;;;;3.53;2.15;;;21.80;52.50;;;;;;5127277;27;45324;-68
2023/10/30 08:22:09;;;;;;;3.80;1.40;;;21.90;52.40;;;;;;5125786;27;45407;-66
2023/10/30 08:24:35;;;;;;;2.78;1.38;;;22.00;52.40;;;;;;5130321;27;45543;-67
2023/10/30 08:27:04;;;;;;;3.75;1.80;;;22.00;52.30;;;;;;5131400;27;45360;-68
2023/10/30 08:29:30;;;;;;;1.50;1.27;;;22.00;52.30;;;;;;5130669;27;45537;-67
2023/10/30 08:31:57;;;;;;;4.75;1.38;;;22.00;52.40;;;;;;5117484;27;45462;-67
2023/10/30 08:34:24;;;;;;;2.17;1.30;;;22.00;52.30;;;;;;5115875;27;47255;-67
2023/10/30 08:36:51;;;;;;;8.45;1.27;;;22.00;52.30;;;;;;5120798;27;45606;-68
2023/10/30 08:39:18;;;;;;;3.38;1.48;;;22.00;52.40;;;;;;5124207;27;45440;-67
2023/10/30 08:41:44;;;;;;;3.03;1.45;;;21.90;52.40;;;;;;5120151;27;45506;-67
2023/10/30 08:44:13;;;;;;;2.42;1.38;;;22.00;53.00;;;;;;5122496;27;46386;-68
2023/10/30 08:46:39;;;;;;;3.42;1.45;;;22.00;52.30;;;;;;5123010;27;45406;-68
2023/10/30 08:49:06;;;;;;;1.52;1.00;;;22.00;52.50;;;;;;5125239;27;45409;-66
2023/10/30 08:51:33;;;;;;;2.45;1.80;;;22.00;52.40;;;;;;5130373;27;45408;-67
2023/10/30 08:54:01;;;;;;;9.30;1.58;;;22.00;52.40;;;;;;5130496;27;45267;-67
2023/10/30 08:56:28;;;;;;;4.07;1.30;;;22.00;52.40;;;;;;5117434;27;45409;-67
2023/10/30 08:58:54;;;;;;;1.83;1.30;;;22.00;52.40;;;;;;5118120;27;45134;-69
2023/10/30 09:01:23;;;;;;;2.80;1.45;;;22.00;52.40;;;;;;5133852;27;45503;-67
2023/10/30 09:03:50;;;;;;;3.00;1.73;;;22.00;52.60;;;;;;5129954;27;45426;-68
2023/10/30 09:06:16;;;;;;;2.85;1.77;;;22.00;52.60;;;;;;5120402;27;45414;-67
2023/10/30 09:08:43;;;;;;;1.35;0.95;;;22.00;52.70;;;;;;5130959;27;45362;-67
2023/10/30 09:11:10;;;;;;;3.15;1.27;;;22.00;52.70;;;;;;5122771;27;45405;-67
2023/10/30 09:13:37;;;;;;;6.97;1.52;;;22.00;52.70;;;;;;5119557;27;45390;-67
2023/10/30 09:16:05;;;;;;;4.15;1.50;;;22.00;52.70;;;;;;5128588;27;45531;-67
2023/10/30 09:18:33;;;;;;;6.13;1.25;;;22.00;52.70;;;;;;5123758;27;45285;-67
2023/10/30 09:21:00;;;;;;;4.82;1.63;;;22.00;52.60;;;;;;5116812;27;45477;-67
2023/10/30 09:23:27;;;;;;;4.50;1.65;;;21.90;52.60;;;;;;5119222;27;45506;-67
2023/10/30 09:25:54;;;;;;;2.83;1.20;;;22.00;52.60;;;;;;5113069;27;45354;-67
2023/10/30 09:28:21;;;;;;;8.85;1.50;;;22.00;52.50;;;;;;5109225;27;45410;-67
2023/10/30 09:30:47;;;;;;;3.13;1.35;;;22.00;52.50;;;;;;5130652;27;45372;-67
2023/10/30 09:33:14;;;;;;;2.92;1.35;;;22.10;52.40;;;;;;5134498;27;45375;-67
2023/10/30 09:35:43;;;;;;;5.53;1.50;;;22.10;52.40;;;;;;5132424;27;45352;-67
2023/10/30 09:38:10;;;;;;;4.28;1.40;;;22.10;52.30;;;;;;5135480;27;45421;-67
2023/10/30 09:40:36;;;;;;;2.58;1.40;;;22.10;52.30;;;;;;5130731;27;45308;-67
2023/10/30 09:43:09;;;;;;;2.00;1.23;;;22.10;52.30;;;;;;5130410;27;46464;-70
2023/10/30 09:45:36;;;;;;;8.77;1.60;;;22.10;52.40;;;;;;5119014;27;45382;-69
2023/10/30 09:48:04;;;;;;;6.13;1.83;;;22.00;52.40;;;;;;5121742;27;45367;-69
2023/10/30 09:50:30;;;;;;;4.18;1.45;;;22.00;52.50;;;;;;5122990;27;45433;-69
2023/10/30 09:52:58;;;;;;;1.80;1.25;;;22.00;52.50;;;;;;5132176;27;46399;-70
2023/10/30 09:55:25;;;;;;;2.88;1.80;;;22.00;52.60;;;;;;5135498;27;45234;-70
2023/10/30 09:57:53;;;;;;;8.23;1.95;;;22.00;52.70;;;;;;5135643;27;45310;-69
2023/10/30 10:00:20;;;;;;;3.85;1.60;;;22.00;53.00;;;;;;5139231;27;45461;-71
2023/10/30 10:02:47;;;;;;;1.70;1.58;;;21.90;53.60;;;;;;5117573;27;45317;-69
2023/10/30 10:05:16;;;;;;;4.45;1.85;;;22.00;53.10;;;;;;5128053;27;45396;-69
2023/10/30 10:07:43;;;;;;;4.03;1.60;;;22.00;53.10;;;;;;5128629;27;45406;-70
2023/10/30 10:10:12;;;;;;;2.53;1.92;;;22.00;53.30;;;;;;5118139;27;45563;-68
2023/10/30 10:12:38;;;;;;;1.70;1.60;;;22.00;53.20;;;;;;5119394;27;45307;-70
2023/10/30 10:15:07;;;;;;;2.17;1.60;;;22.00;53.20;;;;;;5132807;27;45442;-70
2023/10/30 10:17:40;;;;;;;2.40;1.50;;;21.90;53.30;;;;;;5120884;27;45461;-70
2023/10/30 10:20:10;;;;;;;2.05;1.60;;;22.00;53.40;;;;;;5117377;27;45710;-70
2023/10/30 10:22:37;;;;;;;3.00;1.60;;;21.90;53.40;;;;;;5119589;27;47490;-70
2023/10/30 10:25:05;;;;;;;1.95;1.50;;;21.90;53.40;;;;;;5132415;27;45304;-69
2023/10/30 10:27:33;;;;;;;2.33;1.20;;;21.90;53.30;;;;;;5120528;27;45435;-70
2023/10/30 10:30:00;;;;;;;1.50;1.40;;;22.00;53.20;;;;;;5119602;27;45465;-70
2023/10/30 10:32:27;;;;;;;3.60;1.27;;;22.00;53.10;;;;;;5116291;27;45391;-69
2023/10/30 10:34:54;;;;;;;1.88;1.17;;;22.10;53.00;;;;;;5134928;27;45487;-70
2023/10/30 10:37:21;;;;;;;1.73;1.20;;;22.10;53.00;;;;;;5135772;27;45130;-70
2023/10/30 10:39:48;;;;;;;2.78;1.20;;;22.10;52.90;;;;;;5128951;27;45497;-70
2023/10/30 10:42:17;;;;;;;1.35;0.98;;;22.10;52.80;;;;;;5127933;27;46852;-70
2023/10/30 10:44:46;;;;;;;1.52;1.23;;;22.20;52.90;;;;;;5121749;27;45474;-70
2023/10/30 10:47:12;;;;;;;1.48;1.13;;;22.10;52.80;;;;;;5134058;27;45501;-70
2023/10/30 10:49:39;;;;;;;2.90;1.00;;;22.20;52.80;;;;;;5127779;27;45740;-70
2023/10/30 10:52:09;;;;;;;3.05;1.23;;;22.20;52.80;;;;;;5124539;27;47851;-70
2023/10/30 10:54:39;;;;;;;1.20;0.85;;;22.20;52.90;;;;;;5122437;27;45421;-70
2023/10/30 10:57:06;;;;;;;1.23;1.00;;;22.20;52.90;;;;;;5116333;27;45301;-73
2023/10/30 10:59:33;;;;;;;2.60;1.23;;;22.20;52.90;;;;;;5132174;27;45535;-72
2023/10/30 11:02:02;;;;;;;5.93;1.08;;;22.20;52.80;;;;;;5132649;27;46410;-71
2023/10/30 11:04:29;;;;;;;3.88;1.15;;;22.30;52.70;;;;;;5126704;27;46832;-71
2023/10/30 11:06:58;;;;;;;1.08;1.00;;;22.30;52.70;;;;;;5133714;27;45426;-71
2023/10/30 11:09:28;;;;;;;1.95;1.00;;;22.40;52.60;;;;;;5128364;27;45268;-72
2023/10/30 11:12:02;;;;;;;2.55;1.10;;;22.40;52.50;;;;;;5124947;27;46691;-72
2023/10/30 11:14:32;;;;;;;4.22;1.17;;;22.40;52.50;;;;;;5132656;27;45399;-71
2023/10/30 11:17:02;;;;;;;1.10;1.00;;;22.50;52.40;;;;;;5114746;27;45364;-74
2023/10/30 11:19:29;;;;;;;1.33;1.05;;;22.50;53.00;;;;;;5127018;27;45245;-75
2023/10/30 11:21:56;;;;;;;6.18;1.55;;;22.60;52.60;;;;;;5138204;27;46950;-75
2023/10/30 11:24:35;;;;;;;10.15;1.55;;;22.60;52.50;;;;;;5134666;27;45264;-73
2023/10/30 11:27:02;;;;;;;3.67;1.33;;;22.60;53.70;;;;;;5131871;27;45460;-74
2023/10/30 11:29:53;;;;;;;7.13;1.52;;;22.70;53.20;;;;;;5128020;27;45460;-70
2023/10/30 11:32:21;;;;;;;1.83;1.20;;;22.80;52.70;;;;;;5129204;27;45452;-73
2023/10/30 11:34:48;;;;;;;3.83;1.35;;;22.90;52.60;;;;;;5137157;27;45550;-70
2023/10/30 11:37:16;;;;;;;5.18;1.50;;;22.90;52.60;;;;;;5131168;27;45441;-76
2023/10/30 11:39:44;;;;;;;3.05;1.20;;;23.00;52.60;;;;;;5134415;27;45269;-75
2023/10/30 11:42:30;;;;;;;1.23;1.08;;;23.00;52.50;;;;;;5136406;27;45490;-74
2023/10/30 11:45:16;;;;;;;3.13;0.93;;;23.00;52.40;;;;;;5131768;27;45115;-74
2023/10/30 11:47:46;;;;;;;3.95;1.10;;;23.00;52.40;;;;;;5132097;27;45267;-73
2023/10/30 11:50:13;;;;;;;7.38;1.55;;;23.00;52.60;;;;;;5135140;27;45498;-70
2023/10/30 11:52:40;;;;;;;6.78;1.45;;;23.00;52.80;;;;;;5136156;27;46354;-71
2023/10/30 11:55:08;;;;;;;4.03;1.08;;;23.10;53.20;;;;;;5138664;27;45564;-71
2023/10/30 11:57:36;;;;;;;2.70;1.10;;;23.20;52.10;;;;;;5130179;27;45351;-71
2023/10/30 12:00:03;;;;;;;5.80;1.20;;;23.30;51.90;;;;;;5150611;27;45588;-67
2023/10/30 12:02:29;;;;;;;4.35;1.25;;;23.30;52.00;;;;;;5134180;27;45447;-69
2023/10/30 12:05:06;;;;;;;2.38;1.40;;;23.50;52.00;;;;;;5111045;27;45294;-67
2023/10/30 12:07:33;;;;;;;3.92;1.33;;;23.50;51.30;;;;;;5118083;27;45130;-70
2023/10/30 12:10:01;;;;;;;4.93;1.35;;;23.60;52.20;;;;;;5127200;27;45389;-70
2023/10/30 12:12:27;;;;;;;9.57;1.80;;;23.50;51.40;;;;;;5127362;27;46008;-70
2023/10/30 12:14:57;;;;;;;9.68;5.50;;;23.60;52.50;;;;;;5129707;27;45375;-75
2023/10/30 12:17:24;;;;;;;4.00;1.60;;;23.60;51.70;;;;;;5129597;27;45214;-73
2023/10/30 12:19:51;;;;;;;1.90;1.48;;;23.60;51.30;;;;;;5129017;27;45439;-75
2023/10/30 12:22:20;;;;;;;5.25;1.88;;;23.60;51.50;;;;;;5128573;27;45344;-76
2023/10/30 12:24:47;;;;;;;3.85;1.85;;;23.60;51.50;;;;;;5126562;27;44808;-69
2023/10/30 12:27:20;;;;;;;5.57;2.33;;;23.60;51.60;;;;;;5120167;27;45411;-75
2023/10/30 12:29:46;;;;;;;4.35;1.60;;;23.70;51.50;;;;;;5125232;27;45354;-71
2023/10/30 12:32:13;;;;;;;5.25;1.50;;;23.70;51.30;;;;;;5127079;27;46358;-72
2023/10/30 12:34:40;;;;;;;2.63;1.42;;;23.70;51.50;;;;;;5127807;27;45524;-74
2023/10/30 12:37:23;;;;;;;4.97;1.52;;;23.70;51.60;;;;;;5142471;27;45341;-70
2023/10/30 12:40:04;;;;;;;3.90;1.50;;;23.70;51.80;;;;;;5150219;27;45525;-70
2023/10/30 12:42:33;;;;;;;1.60;1.50;;;23.70;52.40;;;;;;5127449;27;46301;-70
2023/10/30 12:45:00;;;;;;;3.50;1.70;;;23.70;51.90;;;;;;5126676;27;45484;-70
2023/10/30 12:47:27;;;;;;;3.10;1.70;;;23.70;51.80;;;;;;5121280;27;45316;-70